sensor_id;sensor_type;location;lat;lon;timestamp;pressure;altitude;pressure_sealevel;temperature;humidity
74631;BME280;63138;55.082;38.804;2023-05-07T00:02:16;100923.81;;;-0.81;67.34
74631;BME280;63138;55.082;38.804;2023-05-07T00:04:42;100923.09;;;-0.85;67.31
74631;BME280;63138;55.082;38.804;2023-05-07T00:07:08;100925.78;;;-0.85;67.65
74631;BME280;63138;55.082;38.804;2023-05-07T00:09:33;100926.88;;;-0.89;67.65
74631;BME280;63138;55.082;38.804;2023-05-07T00:11:59;100922.66;;;-0.93;67.79
74631;BME280;63138;55.082;38.804;2023-05-07T00:14:25;100928.00;;;-0.93;68.06
74631;BME280;63138;55.082;38.804;2023-05-07T00:16:51;100928.91;;;-0.94;68.18
74631;BME280;63138;55.082;38.804;2023-05-07T00:19:17;100931.91;;;-1.00;68.49
74631;BME280;63138;55.082;38.804;2023-05-07T00:21:43;100933.09;;;-1.06;68.76
74631;BME280;63138;55.082;38.804;2023-05-07T00:24:09;100931.59;;;-1.11;69.31
74631;BME280;63138;55.082;38.804;2023-05-07T00:26:34;100937.09;;;-1.14;69.51
74631;BME280;63138;55.082;38.804;2023-05-07T00:29:00;100935.66;;;-1.22;70.29
74631;BME280;63138;55.082;38.804;2023-05-07T00:31:26;100931.50;;;-1.27;70.11
74631;BME280;63138;55.082;38.804;2023-05-07T00:33:52;100937.13;;;-1.33;70.22
74631;BME280;63138;55.082;38.804;2023-05-07T00:36:18;100939.00;;;-1.36;70.77
74631;BME280;63138;55.082;38.804;2023-05-07T00:38:44;100944.59;;;-1.40;70.99
74631;BME280;63138;55.082;38.804;2023-05-07T00:41:10;100936.66;;;-1.42;70.66
74631;BME280;63138;55.082;38.804;2023-05-07T00:43:36;100936.72;;;-1.43;71.31
74631;BME280;63138;55.082;38.804;2023-05-07T00:46:01;100939.41;;;-1.43;71.38
74631;BME280;63138;55.082;38.804;2023-05-07T00:48:27;100942.91;;;-1.43;71.80
74631;BME280;63138;55.082;38.804;2023-05-07T00:50:53;100943.00;;;-1.44;72.10
74631;BME280;63138;55.082;38.804;2023-05-07T00:53:20;100941.22;;;-1.44;72.15
74631;BME280;63138;55.082;38.804;2023-05-07T00:55:46;100949.13;;;-1.42;72.12
74631;BME280;63138;55.082;38.804;2023-05-07T00:58:12;100942.91;;;-1.43;72.09
74631;BME280;63138;55.082;38.804;2023-05-07T01:00:38;100947.53;;;-1.46;72.75
74631;BME280;63138;55.082;38.804;2023-05-07T01:03:04;100945.97;;;-1.50;72.60
74631;BME280;63138;55.082;38.804;2023-05-07T01:05:31;100939.06;;;-1.55;72.40
74631;BME280;63138;55.082;38.804;2023-05-07T01:07:58;100954.28;;;-1.57;72.75
74631;BME280;63138;55.082;38.804;2023-05-07T01:10:25;100946.19;;;-1.55;72.95
74631;BME280;63138;55.082;38.804;2023-05-07T01:12:52;100948.78;;;-1.54;73.05
74631;BME280;63138;55.082;38.804;2023-05-07T01:15:19;100945.25;;;-1.54;72.98
74631;BME280;63138;55.082;38.804;2023-05-07T01:17:45;100944.22;;;-1.51;73.25
74631;BME280;63138;55.082;38.804;2023-05-07T01:20:18;100953.19;;;-1.52;73.34
74631;BME280;63138;55.082;38.804;2023-05-07T01:22:45;100951.59;;;-1.57;73.27
74631;BME280;63138;55.082;38.804;2023-05-07T01:25:12;100959.66;;;-1.58;73.58
74631;BME280;63138;55.082;38.804;2023-05-07T01:27:44;100960.66;;;-1.61;73.65
74631;BME280;63138;55.082;38.804;2023-05-07T01:30:10;100960.66;;;-1.61;73.89
74631;BME280;63138;55.082;38.804;2023-05-07T01:32:43;100959.88;;;-1.63;73.57
74631;BME280;63138;55.082;38.804;2023-05-07T01:35:19;100962.41;;;-1.60;73.70
74631;BME280;63138;55.082;38.804;2023-05-07T01:37:47;100965.53;;;-1.51;73.91
74631;BME280;63138;55.082;38.804;2023-05-07T01:40:13;100962.34;;;-1.41;73.11
74631;BME280;63138;55.082;38.804;2023-05-07T01:42:42;100963.31;;;-1.24;73.07
74631;BME280;63138;55.082;38.804;2023-05-07T01:45:09;100961.63;;;-1.08;71.74
74631;BME280;63138;55.082;38.804;2023-05-07T01:47:36;100970.72;;;-0.94;71.46
74631;BME280;63138;55.082;38.804;2023-05-07T01:50:05;100964.53;;;-0.78;70.75
74631;BME280;63138;55.082;38.804;2023-05-07T01:52:31;100966.25;;;-0.59;70.21
74631;BME280;63138;55.082;38.804;2023-05-07T01:54:57;100968.09;;;-0.44;69.27
74631;BME280;63138;55.082;38.804;2023-05-07T01:57:23;100969.00;;;-0.27;68.65
74631;BME280;63138;55.082;38.804;2023-05-07T01:59:49;100974.00;;;-0.04;67.85
74631;BME280;63138;55.082;38.804;2023-05-07T02:02:15;100968.56;;;0.14;67.14
74631;BME280;63138;55.082;38.804;2023-05-07T02:04:43;100981.59;;;0.20;66.58
74631;BME280;63138;55.082;38.804;2023-05-07T02:07:09;100988.22;;;0.29;67.10
74631;BME280;63138;55.082;38.804;2023-05-07T02:09:36;100978.66;;;0.56;65.75
74631;BME280;63138;55.082;38.804;2023-05-07T02:12:02;100991.50;;;0.82;64.92
74631;BME280;63138;55.082;38.804;2023-05-07T02:14:28;100979.63;;;1.02;64.00
74631;BME280;63138;55.082;38.804;2023-05-07T02:16:54;100990.50;;;1.29;63.07
74631;BME280;63138;55.082;38.804;2023-05-07T02:19:20;100993.91;;;1.61;62.27
74631;BME280;63138;55.082;38.804;2023-05-07T02:21:47;101000.81;;;1.65;61.38
74631;BME280;63138;55.082;38.804;2023-05-07T02:24:14;101002.16;;;1.87;60.91
74631;BME280;63138;55.082;38.804;2023-05-07T02:26:40;100998.81;;;1.98;60.23
74631;BME280;63138;55.082;38.804;2023-05-07T02:29:07;101005.31;;;2.22;59.43
74631;BME280;63138;55.082;38.804;2023-05-07T02:31:33;101002.06;;;2.17;59.04
74631;BME280;63138;55.082;38.804;2023-05-07T02:34:02;100999.34;;;2.46;58.33
74631;BME280;63138;55.082;38.804;2023-05-07T02:36:28;101001.59;;;2.66;57.63
74631;BME280;63138;55.082;38.804;2023-05-07T02:39:00;101007.78;;;3.09;56.44
74631;BME280;63138;55.082;38.804;2023-05-07T02:41:27;101012.28;;;3.61;55.09
74631;BME280;63138;55.082;38.804;2023-05-07T02:43:53;101010.81;;;3.82;54.68
74631;BME280;63138;55.082;38.804;2023-05-07T02:46:20;101005.06;;;4.26;53.08
74631;BME280;63138;55.082;38.804;2023-05-07T02:48:51;101011.00;;;4.68;51.22
74631;BME280;63138;55.082;38.804;2023-05-07T02:51:22;101014.00;;;4.76;51.24
74631;BME280;63138;55.082;38.804;2023-05-07T02:53:49;101010.13;;;5.04;50.19
74631;BME280;63138;55.082;38.804;2023-05-07T02:56:15;101020.22;;;4.39;51.58
74631;BME280;63138;55.082;38.804;2023-05-07T02:58:41;101022.81;;;3.51;54.16
74631;BME280;63138;55.082;38.804;2023-05-07T03:01:11;101025.81;;;3.06;55.52
74631;BME280;63138;55.082;38.804;2023-05-07T03:03:54;101026.72;;;2.51;57.45
74631;BME280;63138;55.082;38.804;2023-05-07T03:06:21;101030.69;;;2.31;58.39
74631;BME280;63138;55.082;38.804;2023-05-07T03:08:48;101027.53;;;2.24;59.02
74631;BME280;63138;55.082;38.804;2023-05-07T03:11:14;101036.53;;;2.09;59.63
74631;BME280;63138;55.082;38.804;2023-05-07T03:13:40;101040.44;;;1.89;60.51
74631;BME280;63138;55.082;38.804;2023-05-07T03:16:06;101039.28;;;1.79;61.28
74631;BME280;63138;55.082;38.804;2023-05-07T03:18:32;101042.88;;;1.63;61.66
74631;BME280;63138;55.082;38.804;2023-05-07T03:20:58;101046.19;;;1.52;62.19
74631;BME280;63138;55.082;38.804;2023-05-07T03:23:24;101047.19;;;1.51;62.56
74631;BME280;63138;55.082;38.804;2023-05-07T03:25:50;101047.91;;;1.39;63.28
74631;BME280;63138;55.082;38.804;2023-05-07T03:28:16;101056.28;;;1.33;63.59
74631;BME280;63138;55.082;38.804;2023-05-07T03:30:48;101048.34;;;1.31;63.97
74631;BME280;63138;55.082;38.804;2023-05-07T03:33:14;101052.91;;;1.29;64.34
74631;BME280;63138;55.082;38.804;2023-05-07T03:35:40;101057.31;;;1.30;64.15
74631;BME280;63138;55.082;38.804;2023-05-07T03:38:06;101050.69;;;1.22;65.03
74631;BME280;63138;55.082;38.804;2023-05-07T03:40:34;101056.41;;;1.16;65.04
74631;BME280;63138;55.082;38.804;2023-05-07T03:43:02;101056.75;;;1.09;65.68
74631;BME280;63138;55.082;38.804;2023-05-07T03:45:30;101064.59;;;1.12;65.63
74631;BME280;63138;55.082;38.804;2023-05-07T03:48:06;101063.06;;;1.08;66.33
74631;BME280;63138;55.082;38.804;2023-05-07T03:50:32;101062.69;;;1.14;65.80
74631;BME280;63138;55.082;38.804;2023-05-07T03:52:59;101052.16;;;1.11;65.98
74631;BME280;63138;55.082;38.804;2023-05-07T03:55:25;101052.78;;;1.01;66.59
74631;BME280;63138;55.082;38.804;2023-05-07T03:57:57;101067.44;;;1.09;66.14
74631;BME280;63138;55.082;38.804;2023-05-07T04:00:24;101069.09;;;1.12;66.48
74631;BME280;63138;55.082;38.804;2023-05-07T04:02:50;101061.75;;;1.16;66.57
74631;BME280;63138;55.082;38.804;2023-05-07T04:05:23;101063.06;;;1.24;66.33
74631;BME280;63138;55.082;38.804;2023-05-07T04:08:15;101059.81;;;1.33;66.17
74631;BME280;63138;55.082;38.804;2023-05-07T04:10:45;101058.78;;;1.36;65.82
74631;BME280;63138;55.082;38.804;2023-05-07T04:13:12;101071.78;;;1.42;65.78
74631;BME280;63138;55.082;38.804;2023-05-07T04:15:38;101072.38;;;1.47;65.76
74631;BME280;63138;55.082;38.804;2023-05-07T04:18:08;101074.50;;;1.57;65.92
74631;BME280;63138;55.082;38.804;2023-05-07T04:20:36;101070.97;;;1.56;65.12
74631;BME280;63138;55.082;38.804;2023-05-07T04:23:09;101083.13;;;1.62;64.79
74631;BME280;63138;55.082;38.804;2023-05-07T04:25:36;101075.09;;;1.62;64.90
74631;BME280;63138;55.082;38.804;2023-05-07T04:28:08;101080.44;;;1.62;64.67
74631;BME280;63138;55.082;38.804;2023-05-07T04:30:34;101084.69;;;1.66;63.97
74631;BME280;63138;55.082;38.804;2023-05-07T04:33:03;101076.66;;;1.66;64.61
74631;BME280;63138;55.082;38.804;2023-05-07T04:35:30;101077.22;;;1.71;64.08
74631;BME280;63138;55.082;38.804;2023-05-07T04:37:57;101084.06;;;1.77;64.13
74631;BME280;63138;55.082;38.804;2023-05-07T04:40:22;101090.75;;;1.84;63.73
74631;BME280;63138;55.082;38.804;2023-05-07T04:42:49;101081.47;;;1.75;63.80
74631;BME280;63138;55.082;38.804;2023-05-07T04:45:15;101089.78;;;1.85;64.13
74631;BME280;63138;55.082;38.804;2023-05-07T04:47:44;101089.53;;;1.89;63.57
74631;BME280;63138;55.082;38.804;2023-05-07T04:50:10;101096.59;;;1.90;63.32
74631;BME280;63138;55.082;38.804;2023-05-07T04:52:37;101093.56;;;1.97;63.68
74631;BME280;63138;55.082;38.804;2023-05-07T04:55:04;101094.59;;;2.08;63.43
74631;BME280;63138;55.082;38.804;2023-05-07T04:57:35;101102.56;;;2.10;62.97
74631;BME280;63138;55.082;38.804;2023-05-07T05:00:01;101094.59;;;2.08;63.30
74631;BME280;63138;55.082;38.804;2023-05-07T05:02:32;101095.78;;;2.19;62.90
74631;BME280;63138;55.082;38.804;2023-05-07T05:04:58;101099.03;;;2.24;62.39
74631;BME280;63138;55.082;38.804;2023-05-07T05:07:25;101100.91;;;3.21;59.45
74631;BME280;63138;55.082;38.804;2023-05-07T05:09:51;101100.25;;;4.10;56.09
74631;BME280;63138;55.082;38.804;2023-05-07T05:12:17;101099.09;;;4.90;53.76
74631;BME280;63138;55.082;38.804;2023-05-07T05:14:43;101092.81;;;5.50;51.34
74631;BME280;63138;55.082;38.804;2023-05-07T05:17:10;101084.13;;;6.40;49.07
74631;BME280;63138;55.082;38.804;2023-05-07T05:19:40;101091.22;;;6.86;47.35
74631;BME280;63138;55.082;38.804;2023-05-07T05:22:06;101086.81;;;7.61;45.70
74631;BME280;63138;55.082;38.804;2023-05-07T05:24:33;101094.19;;;7.59;44.19
74631;BME280;63138;55.082;38.804;2023-05-07T05:26:59;101102.53;;;7.68;43.16
74631;BME280;63138;55.082;38.804;2023-05-07T05:29:28;101094.84;;;7.84;42.28
74631;BME280;63138;55.082;38.804;2023-05-07T05:31:54;101097.78;;;8.44;41.38
74631;BME280;63138;55.082;38.804;2023-05-07T05:34:21;101096.34;;;9.11;40.28
74631;BME280;63138;55.082;38.804;2023-05-07T05:36:48;101092.66;;;8.72;39.49
74631;BME280;63138;55.082;38.804;2023-05-07T05:39:15;101103.19;;;9.15;38.83
74631;BME280;63138;55.082;38.804;2023-05-07T05:41:42;101101.50;;;9.34;37.68
74631;BME280;63138;55.082;38.804;2023-05-07T05:44:08;101106.66;;;9.56;37.09
74631;BME280;63138;55.082;38.804;2023-05-07T05:46:35;101094.81;;;9.77;37.23
74631;BME280;63138;55.082;38.804;2023-05-07T05:49:01;101096.09;;;9.83;37.21
74631;BME280;63138;55.082;38.804;2023-05-07T05:51:27;101094.69;;;9.49;37.03
74631;BME280;63138;55.082;38.804;2023-05-07T05:53:53;101088.53;;;10.53;35.17
74631;BME280;63138;55.082;38.804;2023-05-07T05:56:19;101092.94;;;10.07;34.89
74631;BME280;63138;55.082;38.804;2023-05-07T05:58:46;101101.53;;;9.53;35.26
74631;BME280;63138;55.082;38.804;2023-05-07T06:04:01;101104.50;;;9.50;34.90
74631;BME280;63138;55.082;38.804;2023-05-07T06:06:27;101103.53;;;9.71;34.30
74631;BME280;63138;55.082;38.804;2023-05-07T06:08:53;101103.19;;;9.06;35.12
74631;BME280;63138;55.082;38.804;2023-05-07T06:11:24;101099.91;;;9.12;36.02
74631;BME280;63138;55.082;38.804;2023-05-07T06:13:51;101108.47;;;8.46;36.28
74631;BME280;63138;55.082;38.804;2023-05-07T06:16:16;101124.44;;;7.85;37.00
74631;BME280;63138;55.082;38.804;2023-05-07T06:18:43;101116.59;;;6.84;38.87
74631;BME280;63138;55.082;38.804;2023-05-07T06:21:13;101119.31;;;7.50;38.47
74631;BME280;63138;55.082;38.804;2023-05-07T06:23:43;101122.28;;;9.14;36.01
74631;BME280;63138;55.082;38.804;2023-05-07T06:26:09;101121.00;;;9.18;35.73
74631;BME280;63138;55.082;38.804;2023-05-07T06:28:39;101112.28;;;9.05;35.66
74631;BME280;63138;55.082;38.804;2023-05-07T06:31:13;101126.72;;;8.01;36.11
74631;BME280;63138;55.082;38.804;2023-05-07T06:33:42;101123.63;;;7.74;37.70
74631;BME280;63138;55.082;38.804;2023-05-07T06:36:08;101128.41;;;8.02;37.60
74631;BME280;63138;55.082;38.804;2023-05-07T06:38:35;101121.16;;;7.82;36.86
74631;BME280;63138;55.082;38.804;2023-05-07T06:41:00;101123.72;;;7.83;37.56
74631;BME280;63138;55.082;38.804;2023-05-07T06:43:26;101116.72;;;9.15;35.13
74631;BME280;63138;55.082;38.804;2023-05-07T06:45:54;101107.91;;;10.11;33.61
74631;BME280;63138;55.082;38.804;2023-05-07T06:48:20;101103.16;;;10.42;32.86
74631;BME280;63138;55.082;38.804;2023-05-07T06:50:54;101118.03;;;10.38;32.52
74631;BME280;63138;55.082;38.804;2023-05-07T06:53:22;101113.72;;;9.09;33.90
74631;BME280;63138;55.082;38.804;2023-05-07T06:55:49;101115.66;;;8.35;34.90
74631;BME280;63138;55.082;38.804;2023-05-07T06:58:18;101121.09;;;7.93;36.66
74631;BME280;63138;55.082;38.804;2023-05-07T07:00:46;101136.00;;;8.51;35.75
74631;BME280;63138;55.082;38.804;2023-05-07T07:03:12;101128.34;;;8.87;34.85
74631;BME280;63138;55.082;38.804;2023-05-07T07:05:41;101120.38;;;9.84;32.92
74631;BME280;63138;55.082;38.804;2023-05-07T07:08:07;101114.16;;;10.88;31.58
74631;BME280;63138;55.082;38.804;2023-05-07T07:10:34;101117.47;;;10.44;32.01
74631;BME280;63138;55.082;38.804;2023-05-07T07:13:02;101116.03;;;9.23;33.92
74631;BME280;63138;55.082;38.804;2023-05-07T07:15:28;101124.75;;;7.92;34.60
74631;BME280;63138;55.082;38.804;2023-05-07T07:17:56;101123.78;;;7.28;34.96
74631;BME280;63138;55.082;38.804;2023-05-07T07:20:23;101109.81;;;8.30;33.70
74631;BME280;63138;55.082;38.804;2023-05-07T07:22:49;101115.50;;;8.89;33.01
74631;BME280;63138;55.082;38.804;2023-05-07T07:25:16;101120.97;;;9.78;31.29
74631;BME280;63138;55.082;38.804;2023-05-07T07:27:43;101120.47;;;10.31;30.36
74631;BME280;63138;55.082;38.804;2023-05-07T07:30:10;101120.09;;;9.58;31.54
74631;BME280;63138;55.082;38.804;2023-05-07T07:32:39;101102.28;;;8.34;33.84
74631;BME280;63138;55.082;38.804;2023-05-07T07:35:07;101128.81;;;7.98;34.23
74631;BME280;63138;55.082;38.804;2023-05-07T07:37:33;101113.94;;;7.92;31.99
74631;BME280;63138;55.082;38.804;2023-05-07T07:39:59;101116.00;;;8.63;31.18
74631;BME280;63138;55.082;38.804;2023-05-07T07:42:25;101111.34;;;9.35;30.29
74631;BME280;63138;55.082;38.804;2023-05-07T07:44:52;101109.66;;;9.73;29.07
74631;BME280;63138;55.082;38.804;2023-05-07T07:47:21;101109.94;;;9.70;30.36
74631;BME280;63138;55.082;38.804;2023-05-07T07:49:49;101109.22;;;9.48;30.77
74631;BME280;63138;55.082;38.804;2023-05-07T07:52:15;101112.59;;;9.11;31.45
74631;BME280;63138;55.082;38.804;2023-05-07T07:54:44;101104.97;;;8.55;32.29
74631;BME280;63138;55.082;38.804;2023-05-07T07:57:10;101113.28;;;8.63;32.02
74631;BME280;63138;55.082;38.804;2023-05-07T07:59:36;101111.63;;;9.42;31.11
74631;BME280;63138;55.082;38.804;2023-05-07T08:02:05;101119.06;;;9.88;30.51
74631;BME280;63138;55.082;38.804;2023-05-07T08:04:34;101112.50;;;9.52;29.74
74631;BME280;63138;55.082;38.804;2023-05-07T08:07:03;101111.47;;;10.31;28.57
74631;BME280;63138;55.082;38.804;2023-05-07T08:09:34;101107.50;;;10.16;29.05
74631;BME280;63138;55.082;38.804;2023-05-07T08:12:01;101105.38;;;9.61;29.54
74631;BME280;63138;55.082;38.804;2023-05-07T08:14:29;101088.34;;;10.07;28.70
74631;BME280;63138;55.082;38.804;2023-05-07T08:16:56;101105.16;;;10.50;28.01
74631;BME280;63138;55.082;38.804;2023-05-07T08:19:22;101104.81;;;9.76;29.08
74631;BME280;63138;55.082;38.804;2023-05-07T08:21:49;101097.41;;;8.89;29.68
74631;BME280;63138;55.082;38.804;2023-05-07T08:24:17;101101.34;;;8.23;31.07
74631;BME280;63138;55.082;38.804;2023-05-07T08:26:45;101107.16;;;8.40;31.89
74631;BME280;63138;55.082;38.804;2023-05-07T08:29:12;101103.91;;;9.17;31.28
74631;BME280;63138;55.082;38.804;2023-05-07T08:31:38;101103.25;;;9.54;29.98
74631;BME280;63138;55.082;38.804;2023-05-07T08:34:07;101095.75;;;10.35;28.77
74631;BME280;63138;55.082;38.804;2023-05-07T08:36:36;101086.25;;;10.58;28.22
74631;BME280;63138;55.082;38.804;2023-05-07T08:39:03;101087.47;;;10.36;28.38
74631;BME280;63138;55.082;38.804;2023-05-07T08:41:29;101084.38;;;10.59;28.15
74631;BME280;63138;55.082;38.804;2023-05-07T08:43:57;101085.53;;;10.56;28.17
74631;BME280;63138;55.082;38.804;2023-05-07T08:46:25;101097.78;;;9.93;28.45
74631;BME280;63138;55.082;38.804;2023-05-07T08:48:54;101088.34;;;9.19;29.65
74631;BME280;63138;55.082;38.804;2023-05-07T08:51:21;101095.06;;;8.75;30.27
74631;BME280;63138;55.082;38.804;2023-05-07T08:53:48;101090.22;;;8.69;30.37
74631;BME280;63138;55.082;38.804;2023-05-07T08:56:22;101096.94;;;9.25;30.01
74631;BME280;63138;55.082;38.804;2023-05-07T08:58:51;101094.94;;;9.75;29.54
74631;BME280;63138;55.082;38.804;2023-05-07T09:01:24;101092.97;;;9.58;29.79
74631;BME280;63138;55.082;38.804;2023-05-07T09:03:53;101084.31;;;8.94;30.09
74631;BME280;63138;55.082;38.804;2023-05-07T09:06:21;101094.47;;;8.61;30.81
74631;BME280;63138;55.082;38.804;2023-05-07T09:08:52;101097.50;;;8.68;31.46
74631;BME280;63138;55.082;38.804;2023-05-07T09:11:22;101092.66;;;8.20;32.42
74631;BME280;63138;55.082;38.804;2023-05-07T09:13:53;101099.03;;;8.19;32.30
74631;BME280;63138;55.082;38.804;2023-05-07T09:16:24;101096.97;;;8.01;32.20
74631;BME280;63138;55.082;38.804;2023-05-07T09:18:52;101087.97;;;8.74;30.65
74631;BME280;63138;55.082;38.804;2023-05-07T09:21:21;101075.97;;;8.67;30.66
74631;BME280;63138;55.082;38.804;2023-05-07T09:23:51;101083.16;;;8.47;31.73
74631;BME280;63138;55.082;38.804;2023-05-07T09:26:25;101095.66;;;8.48;32.07
74631;BME280;63138;55.082;38.804;2023-05-07T09:28:52;101101.28;;;8.14;33.03
74631;BME280;63138;55.082;38.804;2023-05-07T09:31:19;101098.47;;;7.94;30.94
74631;BME280;63138;55.082;38.804;2023-05-07T09:33:46;101099.97;;;8.50;30.75
74631;BME280;63138;55.082;38.804;2023-05-07T09:36:15;101094.84;;;8.57;30.81
74631;BME280;63138;55.082;38.804;2023-05-07T09:38:41;101090.84;;;8.51;31.33
74631;BME280;63138;55.082;38.804;2023-05-07T09:41:10;101100.09;;;8.07;31.03
74631;BME280;63138;55.082;38.804;2023-05-07T09:44:00;101092.44;;;8.12;31.13
74631;BME280;63138;55.082;38.804;2023-05-07T09:46:36;101090.16;;;7.54;30.78
74631;BME280;63138;55.082;38.804;2023-05-07T09:49:19;101105.03;;;7.16;31.50
74631;BME280;63138;55.082;38.804;2023-05-07T09:51:49;101093.81;;;7.32;33.22
74631;BME280;63138;55.082;38.804;2023-05-07T09:54:17;101102.78;;;7.32;32.96
74631;BME280;63138;55.082;38.804;2023-05-07T09:56:49;101102.72;;;7.43;32.76
74631;BME280;63138;55.082;38.804;2023-05-07T09:59:18;101092.72;;;7.88;30.70
74631;BME280;63138;55.082;38.804;2023-05-07T10:01:47;101087.22;;;8.41;29.19
74631;BME280;63138;55.082;38.804;2023-05-07T10:04:16;101086.34;;;9.02;29.07
74631;BME280;63138;55.082;38.804;2023-05-07T10:06:44;101082.56;;;9.44;28.56
74631;BME280;63138;55.082;38.804;2023-05-07T10:09:10;101092.06;;;9.18;27.95
74631;BME280;63138;55.082;38.804;2023-05-07T10:11:38;101092.00;;;8.58;28.52
74631;BME280;63138;55.082;38.804;2023-05-07T10:14:24;101097.25;;;8.29;29.52
74631;BME280;63138;55.082;38.804;2023-05-07T10:16:52;101092.78;;;7.97;30.16
74631;BME280;63138;55.082;38.804;2023-05-07T10:19:22;101100.38;;;7.50;30.46
74631;BME280;63138;55.082;38.804;2023-05-07T10:21:54;101106.25;;;7.55;30.25
74631;BME280;63138;55.082;38.804;2023-05-07T10:24:29;101103.75;;;7.42;30.58
74631;BME280;63138;55.082;38.804;2023-05-07T10:26:58;101096.22;;;7.46;30.62
74631;BME280;63138;55.082;38.804;2023-05-07T10:34:54;101108.81;;;7.24;32.84
74631;BME280;63138;55.082;38.804;2023-05-07T10:37:24;101109.50;;;7.38;32.38
74631;BME280;63138;55.082;38.804;2023-05-07T10:39:51;101104.44;;;7.77;30.12
74631;BME280;63138;55.082;38.804;2023-05-07T10:42:18;101115.44;;;7.64;30.54
74631;BME280;63138;55.082;38.804;2023-05-07T10:44:49;101109.91;;;7.87;29.40
74631;BME280;63138;55.082;38.804;2023-05-07T10:47:22;101103.78;;;8.48;28.81
74631;BME280;63138;55.082;38.804;2023-05-07T10:50:19;101106.25;;;8.51;28.10
74631;BME280;63138;55.082;38.804;2023-05-07T10:52:40;101099.16;;;8.38;27.15
74631;BME280;63138;55.082;38.804;2023-05-07T10:58:28;101100.69;;;8.10;27.32
74631;BME280;63138;55.082;38.804;2023-05-07T11:01:03;101100.28;;;7.94;29.54
74631;BME280;63138;55.082;38.804;2023-05-07T11:03:34;101099.47;;;7.61;30.52
74631;BME280;63138;55.082;38.804;2023-05-07T11:08:59;101106.19;;;7.78;30.94
74631;BME280;63138;55.082;38.804;2023-05-07T11:14:15;101110.38;;;8.55;28.88
74631;BME280;63138;55.082;38.804;2023-05-07T11:17:07;101104.09;;;8.45;29.12
74631;BME280;63138;55.082;38.804;2023-05-07T11:19:54;101102.47;;;8.21;29.34
74631;BME280;63138;55.082;38.804;2023-05-07T11:22:53;101096.56;;;7.85;28.82
74631;BME280;63138;55.082;38.804;2023-05-07T11:25:26;101096.94;;;8.44;28.22
74631;BME280;63138;55.082;38.804;2023-05-07T11:28:05;101094.94;;;8.76;27.95
74631;BME280;63138;55.082;38.804;2023-05-07T11:30:32;101093.50;;;9.32;26.90
74631;BME280;63138;55.082;38.804;2023-05-07T11:32:58;101088.53;;;8.77;27.14
74631;BME280;63138;55.082;38.804;2023-05-07T11:35:24;101097.13;;;8.92;27.87
74631;BME280;63138;55.082;38.804;2023-05-07T11:37:58;101109.25;;;8.36;28.50
74631;BME280;63138;55.082;38.804;2023-05-07T11:40:25;101109.00;;;8.39;28.89
74631;BME280;63138;55.082;38.804;2023-05-07T11:42:51;101107.09;;;8.30;28.34
74631;BME280;63138;55.082;38.804;2023-05-07T11:45:23;101103.94;;;8.25;28.83
74631;BME280;63138;55.082;38.804;2023-05-07T11:47:52;101104.47;;;8.71;27.87
74631;BME280;63138;55.082;38.804;2023-05-07T11:50:18;101111.94;;;8.88;27.54
74631;BME280;63138;55.082;38.804;2023-05-07T11:52:51;101109.72;;;9.03;27.69
74631;BME280;63138;55.082;38.804;2023-05-07T11:55:18;101103.66;;;9.40;27.57
74631;BME280;63138;55.082;38.804;2023-05-07T11:57:44;101096.44;;;9.00;27.70
74631;BME280;63138;55.082;38.804;2023-05-07T12:00:11;101102.06;;;9.37;27.15
74631;BME280;63138;55.082;38.804;2023-05-07T12:02:40;101102.91;;;9.18;26.48
74631;BME280;63138;55.082;38.804;2023-05-07T12:05:07;101110.88;;;9.10;26.60
74631;BME280;63138;55.082;38.804;2023-05-07T12:07:35;101107.22;;;9.41;26.82
74631;BME280;63138;55.082;38.804;2023-05-07T12:10:05;101103.97;;;9.56;25.94
74631;BME280;63138;55.082;38.804;2023-05-07T12:12:41;101102.78;;;9.40;26.14
74631;BME280;63138;55.082;38.804;2023-05-07T12:15:08;101099.63;;;9.34;26.70
74631;BME280;63138;55.082;38.804;2023-05-07T12:17:34;101106.38;;;9.60;26.21
74631;BME280;63138;55.082;38.804;2023-05-07T12:20:01;101095.06;;;9.25;26.20
74631;BME280;63138;55.082;38.804;2023-05-07T12:22:45;101105.94;;;8.85;26.45
74631;BME280;63138;55.082;38.804;2023-05-07T12:25:12;101084.34;;;9.24;26.20
74631;BME280;63138;55.082;38.804;2023-05-07T12:27:41;101098.63;;;9.16;26.60
74631;BME280;63138;55.082;38.804;2023-05-07T12:30:10;101100.72;;;9.03;26.71
74631;BME280;63138;55.082;38.804;2023-05-07T12:32:36;101093.56;;;8.92;26.25
74631;BME280;63138;55.082;38.804;2023-05-07T12:35:02;101103.63;;;8.70;26.42
74631;BME280;63138;55.082;38.804;2023-05-07T12:37:30;101105.63;;;8.68;26.81
74631;BME280;63138;55.082;38.804;2023-05-07T12:40:09;101095.38;;;8.82;26.26
74631;BME280;63138;55.082;38.804;2023-05-07T12:42:36;101086.22;;;8.73;27.04
74631;BME280;63138;55.082;38.804;2023-05-07T12:45:13;101101.38;;;8.45;27.59
74631;BME280;63138;55.082;38.804;2023-05-07T12:47:45;101093.97;;;8.26;27.96
74631;BME280;63138;55.082;38.804;2023-05-07T12:50:15;101104.88;;;8.14;28.23
74631;BME280;63138;55.082;38.804;2023-05-07T12:52:45;101102.13;;;8.56;27.95
74631;BME280;63138;55.082;38.804;2023-05-07T12:55:14;101094.84;;;8.88;26.79
74631;BME280;63138;55.082;38.804;2023-05-07T12:57:47;101099.97;;;8.29;27.05
74631;BME280;63138;55.082;38.804;2023-05-07T13:00:14;101106.09;;;8.31;26.95
74631;BME280;63138;55.082;38.804;2023-05-07T13:02:42;101100.94;;;8.28;27.00
74631;BME280;63138;55.082;38.804;2023-05-07T13:05:11;101101.50;;;8.22;27.64
74631;BME280;63138;55.082;38.804;2023-05-07T13:07:39;101095.16;;;8.12;27.41
74631;BME280;63138;55.082;38.804;2023-05-07T13:10:06;101099.00;;;8.09;28.35
74631;BME280;63138;55.082;38.804;2023-05-07T13:12:32;101105.84;;;8.13;28.25